sensor_id;sensor_type;location;lat;lon;timestamp;P1;durP1;ratioP1;P2;durP2;ratioP2
22939;SDS011;11636;52.086;5.090;2023-02-15T00:01:39;35.50;;;23.90;;
22939;SDS011;11636;52.086;5.090;2023-02-15T00:04:07;34.78;;;24.45;;
22939;SDS011;11636;52.086;5.090;2023-02-15T00:06:41;36.55;;;24.80;;
22939;SDS011;11636;52.086;5.090;2023-02-15T00:09:10;33.20;;;22.95;;
22939;SDS011;11636;52.086;5.090;2023-02-15T00:11:45;35.17;;;25.13;;
22939;SDS011;11636;52.086;5.090;2023-02-15T00:14:24;35.63;;;25.80;;
22939;SDS011;11636;52.086;5.090;2023-02-15T00:16:57;33.80;;;24.52;;
22939;SDS011;11636;52.086;5.090;2023-02-15T00:19:26;30.25;;;22.08;;
22939;SDS011;11636;52.086;5.090;2023-02-15T00:21:59;36.42;;;25.13;;
22939;SDS011;11636;52.086;5.090;2023-02-15T00:24:26;30.85;;;22.48;;
22939;SDS011;11636;52.086;5.090;2023-02-15T00:27:00;33.03;;;23.83;;
22939;SDS011;11636;52.086;5.090;2023-02-15T00:29:33;37.15;;;25.40;;
22939;SDS011;11636;52.086;5.090;2023-02-15T00:32:06;31.02;;;22.02;;
22939;SDS011;11636;52.086;5.090;2023-02-15T00:34:32;37.13;;;23.67;;
22939;SDS011;11636;52.086;5.090;2023-02-15T00:37:06;39.38;;;27.13;;
22939;SDS011;11636;52.086;5.090;2023-02-15T00:39:40;33.83;;;23.95;;
22939;SDS011;11636;52.086;5.090;2023-02-15T00:42:06;32.10;;;21.95;;
22939;SDS011;11636;52.086;5.090;2023-02-15T00:44:40;31.70;;;22.27;;
22939;SDS011;11636;52.086;5.090;2023-02-15T00:47:13;33.40;;;23.27;;
22939;SDS011;11636;52.086;5.090;2023-02-15T00:49:40;33.13;;;23.35;;
22939;SDS011;11636;52.086;5.090;2023-02-15T00:52:06;36.38;;;25.90;;
22939;SDS011;11636;52.086;5.090;2023-02-15T00:54:40;34.90;;;25.00;;
22939;SDS011;11636;52.086;5.090;2023-02-15T00:57:13;34.30;;;23.13;;
22939;SDS011;11636;52.086;5.090;2023-02-15T00:59:40;33.97;;;23.27;;
22939;SDS011;11636;52.086;5.090;2023-02-15T01:02:17;29.95;;;21.42;;
22939;SDS011;11636;52.086;5.090;2023-02-15T01:04:51;31.50;;;21.95;;
22939;SDS011;11636;52.086;5.090;2023-02-15T01:07:17;37.15;;;25.35;;
22939;SDS011;11636;52.086;5.090;2023-02-15T01:09:51;35.90;;;24.38;;
22939;SDS011;11636;52.086;5.090;2023-02-15T01:12:18;30.83;;;22.13;;
22939;SDS011;11636;52.086;5.090;2023-02-15T01:14:51;36.33;;;25.08;;
22939;SDS011;11636;52.086;5.090;2023-02-15T01:17:18;31.15;;;21.80;;
22939;SDS011;11636;52.086;5.090;2023-02-15T01:19:44;34.33;;;23.17;;
22939;SDS011;11636;52.086;5.090;2023-02-15T01:22:18;38.10;;;25.08;;
22939;SDS011;11636;52.086;5.090;2023-02-15T01:24:48;33.55;;;23.27;;
22939;SDS011;11636;52.086;5.090;2023-02-15T01:27:23;37.75;;;25.50;;
22939;SDS011;11636;52.086;5.090;2023-02-15T01:29:57;33.85;;;23.63;;
22939;SDS011;11636;52.086;5.090;2023-02-15T01:32:24;32.45;;;22.75;;
22939;SDS011;11636;52.086;5.090;2023-02-15T01:34:58;35.78;;;24.23;;
22939;SDS011;11636;52.086;5.090;2023-02-15T01:37:36;33.15;;;23.17;;
22939;SDS011;11636;52.086;5.090;2023-02-15T01:40:14;31.90;;;21.67;;
22939;SDS011;11636;52.086;5.090;2023-02-15T01:42:52;32.05;;;22.00;;
22939;SDS011;11636;52.086;5.090;2023-02-15T01:45:22;36.92;;;23.30;;
22939;SDS011;11636;52.086;5.090;2023-02-15T01:47:59;32.78;;;22.73;;
22939;SDS011;11636;52.086;5.090;2023-02-15T01:50:45;33.03;;;22.38;;
22939;SDS011;11636;52.086;5.090;2023-02-15T01:53:34;32.97;;;22.70;;
22939;SDS011;11636;52.086;5.090;2023-02-15T01:58:49;37.17;;;25.00;;
22939;SDS011;11636;52.086;5.090;2023-02-15T02:01:25;35.33;;;24.15;;
22939;SDS011;11636;52.086;5.090;2023-02-15T02:06:37;35.60;;;23.75;;
22939;SDS011;11636;52.086;5.090;2023-02-15T02:09:05;31.38;;;22.05;;
22939;SDS011;11636;52.086;5.090;2023-02-15T02:11:32;33.70;;;24.23;;
22939;SDS011;11636;52.086;5.090;2023-02-15T02:14:07;34.67;;;24.33;;
22939;SDS011;11636;52.086;5.090;2023-02-15T02:31:37;31.83;;;21.38;;
22939;SDS011;11636;52.086;5.090;2023-02-15T02:37:12;36.33;;;24.38;;
22939;SDS011;11636;52.086;5.090;2023-02-15T02:45:57;34.53;;;23.65;;
22939;SDS011;11636;52.086;5.090;2023-02-15T02:48:35;34.47;;;24.23;;
22939;SDS011;11636;52.086;5.090;2023-02-15T02:51:03;30.83;;;22.20;;
22939;SDS011;11636;52.086;5.090;2023-02-15T02:53:30;34.33;;;24.25;;
22939;SDS011;11636;52.086;5.090;2023-02-15T02:58:46;35.97;;;24.23;;
22939;SDS011;11636;52.086;5.090;2023-02-15T03:01:31;36.05;;;24.73;;
22939;SDS011;11636;52.086;5.090;2023-02-15T03:04:07;37.47;;;24.38;;
22939;SDS011;11636;52.086;5.090;2023-02-15T03:06:49;35.97;;;23.70;;
22939;SDS011;11636;52.086;5.090;2023-02-15T03:09:29;39.00;;;26.15;;
22939;SDS011;11636;52.086;5.090;2023-02-15T03:12:16;33.42;;;23.10;;
22939;SDS011;11636;52.086;5.090;2023-02-15T03:14:55;33.42;;;22.85;;
22939;SDS011;11636;52.086;5.090;2023-02-15T03:17:35;34.78;;;22.52;;
22939;SDS011;11636;52.086;5.090;2023-02-15T03:20:09;33.33;;;22.23;;
22939;SDS011;11636;52.086;5.090;2023-02-15T03:22:51;37.70;;;24.27;;
22939;SDS011;11636;52.086;5.090;2023-02-15T03:25:27;33.42;;;22.65;;
22939;SDS011;11636;52.086;5.090;2023-02-15T03:28:07;37.78;;;24.45;;
22939;SDS011;11636;52.086;5.090;2023-02-15T03:30:39;39.53;;;25.88;;
22939;SDS011;11636;52.086;5.090;2023-02-15T03:33:17;36.13;;;23.85;;
22939;SDS011;11636;52.086;5.090;2023-02-15T03:35:53;37.67;;;24.02;;
22939;SDS011;11636;52.086;5.090;2023-02-15T03:38:34;32.17;;;22.17;;
22939;SDS011;11636;52.086;5.090;2023-02-15T03:41:15;33.67;;;22.88;;
22939;SDS011;11636;52.086;5.090;2023-02-15T03:49:27;32.42;;;22.42;;
22939;SDS011;11636;52.086;5.090;2023-02-15T03:52:21;34.83;;;24.05;;
22939;SDS011;11636;52.086;5.090;2023-02-15T03:54:49;37.97;;;24.55;;
22939;SDS011;11636;52.086;5.090;2023-02-15T03:57:27;36.85;;;23.95;;
22939;SDS011;11636;52.086;5.090;2023-02-15T04:00:18;36.28;;;24.77;;
22939;SDS011;11636;52.086;5.090;2023-02-15T04:03:23;35.22;;;23.98;;
22939;SDS011;11636;52.086;5.090;2023-02-15T04:06:00;34.30;;;23.00;;
22939;SDS011;11636;52.086;5.090;2023-02-15T04:08:29;36.45;;;23.35;;
22939;SDS011;11636;52.086;5.090;2023-02-15T04:11:21;42.03;;;26.65;;
22939;SDS011;11636;52.086;5.090;2023-02-15T04:13:48;35.90;;;23.02;;
22939;SDS011;11636;52.086;5.090;2023-02-15T04:16:28;34.13;;;23.83;;
22939;SDS011;11636;52.086;5.090;2023-02-15T04:19:01;36.40;;;23.95;;
22939;SDS011;11636;52.086;5.090;2023-02-15T04:21:46;33.08;;;22.90;;
22939;SDS011;11636;52.086;5.090;2023-02-15T04:24:38;34.13;;;23.23;;
22939;SDS011;11636;52.086;5.090;2023-02-15T04:27:23;35.30;;;24.10;;
22939;SDS011;11636;52.086;5.090;2023-02-15T04:29:57;39.10;;;24.88;;
22939;SDS011;11636;52.086;5.090;2023-02-15T04:32:24;31.98;;;22.40;;
22939;SDS011;11636;52.086;5.090;2023-02-15T04:34:57;42.63;;;27.83;;
22939;SDS011;11636;52.086;5.090;2023-02-15T04:37:24;33.38;;;23.52;;
22939;SDS011;11636;52.086;5.090;2023-02-15T04:40:05;38.15;;;24.83;;
22939;SDS011;11636;52.086;5.090;2023-02-15T04:42:33;35.10;;;23.77;;
22939;SDS011;11636;52.086;5.090;2023-02-15T04:45:00;35.20;;;22.45;;
22939;SDS011;11636;52.086;5.090;2023-02-15T04:47:33;31.73;;;21.80;;
22939;SDS011;11636;52.086;5.090;2023-02-15T04:50:00;33.72;;;21.95;;
22939;SDS011;11636;52.086;5.090;2023-02-15T04:52:33;36.03;;;24.30;;
22939;SDS011;11636;52.086;5.090;2023-02-15T04:55:06;36.70;;;24.08;;
22939;SDS011;11636;52.086;5.090;2023-02-15T04:57:47;34.63;;;23.65;;
22939;SDS011;11636;52.086;5.090;2023-02-15T05:00:14;36.20;;;23.38;;
22939;SDS011;11636;52.086;5.090;2023-02-15T05:02:47;30.92;;;21.58;;
22939;SDS011;11636;52.086;5.090;2023-02-15T05:05:21;33.60;;;23.08;;
22939;SDS011;11636;52.086;5.090;2023-02-15T05:07:48;32.45;;;21.80;;
22939;SDS011;11636;52.086;5.090;2023-02-15T05:10:15;32.20;;;21.90;;
22939;SDS011;11636;52.086;5.090;2023-02-15T05:12:48;37.67;;;24.20;;
22939;SDS011;11636;52.086;5.090;2023-02-15T05:15:15;33.85;;;23.48;;
22939;SDS011;11636;52.086;5.090;2023-02-15T05:17:42;35.10;;;24.10;;
22939;SDS011;11636;52.086;5.090;2023-02-15T05:20:15;35.60;;;23.20;;
22939;SDS011;11636;52.086;5.090;2023-02-15T05:22:42;32.53;;;22.80;;
22939;SDS011;11636;52.086;5.090;2023-02-15T05:25:15;35.42;;;22.95;;
22939;SDS011;11636;52.086;5.090;2023-02-15T05:28:00;35.35;;;22.48;;
22939;SDS011;11636;52.086;5.090;2023-02-15T05:31:03;34.05;;;22.45;;
22939;SDS011;11636;52.086;5.090;2023-02-15T05:33:44;33.35;;;22.23;;
22939;SDS011;11636;52.086;5.090;2023-02-15T05:36:17;32.17;;;22.17;;
22939;SDS011;11636;52.086;5.090;2023-02-15T05:38:44;32.33;;;21.77;;
22939;SDS011;11636;52.086;5.090;2023-02-15T05:41:17;32.90;;;21.45;;
22939;SDS011;11636;52.086;5.090;2023-02-15T05:43:45;35.17;;;22.70;;
22939;SDS011;11636;52.086;5.090;2023-02-15T05:46:18;37.25;;;24.77;;
22939;SDS011;11636;52.086;5.090;2023-02-15T05:48:46;34.67;;;23.30;;
22939;SDS011;11636;52.086;5.090;2023-02-15T05:51:19;34.08;;;22.55;;
22939;SDS011;11636;52.086;5.090;2023-02-15T05:53:46;42.00;;;26.30;;
22939;SDS011;11636;52.086;5.090;2023-02-15T05:56:19;32.92;;;22.25;;
22939;SDS011;11636;52.086;5.090;2023-02-15T05:58:52;33.78;;;22.75;;
22939;SDS011;11636;52.086;5.090;2023-02-15T06:01:26;35.85;;;24.08;;
22939;SDS011;11636;52.086;5.090;2023-02-15T06:03:59;36.10;;;23.65;;
22939;SDS011;11636;52.086;5.090;2023-02-15T06:06:26;32.55;;;21.83;;
22939;SDS011;11636;52.086;5.090;2023-02-15T06:08:59;34.33;;;22.85;;
22939;SDS011;11636;52.086;5.090;2023-02-15T06:11:26;37.25;;;24.10;;
22939;SDS011;11636;52.086;5.090;2023-02-15T06:13:59;32.80;;;21.77;;
22939;SDS011;11636;52.086;5.090;2023-02-15T06:16:26;33.88;;;23.38;;
22939;SDS011;11636;52.086;5.090;2023-02-15T06:18:53;34.70;;;23.67;;
22939;SDS011;11636;52.086;5.090;2023-02-15T06:21:26;34.65;;;23.52;;
22939;SDS011;11636;52.086;5.090;2023-02-15T06:23:53;36.35;;;23.50;;
22939;SDS011;11636;52.086;5.090;2023-02-15T06:26:26;34.40;;;22.35;;
22939;SDS011;11636;52.086;5.090;2023-02-15T06:28:53;36.90;;;23.77;;
22939;SDS011;11636;52.086;5.090;2023-02-15T06:31:20;37.20;;;24.95;;
22939;SDS011;11636;52.086;5.090;2023-02-15T06:33:54;33.03;;;22.75;;
22939;SDS011;11636;52.086;5.090;2023-02-15T06:36:27;33.70;;;21.85;;
22939;SDS011;11636;52.086;5.090;2023-02-15T06:39:05;33.53;;;22.25;;
22939;SDS011;11636;52.086;5.090;2023-02-15T06:41:39;32.20;;;22.65;;
22939;SDS011;11636;52.086;5.090;2023-02-15T06:44:06;36.50;;;23.55;;
22939;SDS011;11636;52.086;5.090;2023-02-15T06:46:39;31.38;;;21.08;;
22939;SDS011;11636;52.086;5.090;2023-02-15T06:49:06;30.75;;;21.10;;
22939;SDS011;11636;52.086;5.090;2023-02-15T06:51:33;31.50;;;20.45;;
22939;SDS011;11636;52.086;5.090;2023-02-15T06:54:07;36.80;;;23.88;;
22939;SDS011;11636;52.086;5.090;2023-02-15T06:56:40;37.70;;;22.52;;
22939;SDS011;11636;52.086;5.090;2023-02-15T06:59:08;34.60;;;22.15;;
22939;SDS011;11636;52.086;5.090;2023-02-15T07:01:41;35.78;;;23.73;;
22939;SDS011;11636;52.086;5.090;2023-02-15T07:04:08;31.80;;;22.00;;
22939;SDS011;11636;52.086;5.090;2023-02-15T07:06:42;29.73;;;19.88;;
22939;SDS011;11636;52.086;5.090;2023-02-15T07:09:09;32.17;;;22.15;;
22939;SDS011;11636;52.086;5.090;2023-02-15T07:11:36;33.42;;;22.10;;
22939;SDS011;11636;52.086;5.090;2023-02-15T07:14:28;31.23;;;22.02;;
22939;SDS011;11636;52.086;5.090;2023-02-15T07:16:55;31.00;;;20.85;;
22939;SDS011;11636;52.086;5.090;2023-02-15T07:19:22;34.10;;;22.27;;
22939;SDS011;11636;52.086;5.090;2023-02-15T07:21:56;35.15;;;22.85;;
22939;SDS011;11636;52.086;5.090;2023-02-15T07:24:23;33.47;;;22.88;;
22939;SDS011;11636;52.086;5.090;2023-02-15T07:26:50;31.67;;;22.10;;
22939;SDS011;11636;52.086;5.090;2023-02-15T07:29:24;30.30;;;20.88;;
22939;SDS011;11636;52.086;5.090;2023-02-15T07:31:50;34.72;;;22.48;;
22939;SDS011;11636;52.086;5.090;2023-02-15T07:34:17;33.17;;;21.85;;
22939;SDS011;11636;52.086;5.090;2023-02-15T07:36:51;30.40;;;20.67;;
22939;SDS011;11636;52.086;5.090;2023-02-15T07:39:19;33.60;;;21.90;;
22939;SDS011;11636;52.086;5.090;2023-02-15T07:41:46;37.72;;;24.73;;
22939;SDS011;11636;52.086;5.090;2023-02-15T07:44:19;32.20;;;21.05;;
22939;SDS011;11636;52.086;5.090;2023-02-15T07:46:46;36.35;;;23.23;;
22939;SDS011;11636;52.086;5.090;2023-02-15T07:49:13;31.27;;;21.52;;
22939;SDS011;11636;52.086;5.090;2023-02-15T07:51:47;36.28;;;22.92;;
22939;SDS011;11636;52.086;5.090;2023-02-15T07:54:14;33.17;;;21.38;;
22939;SDS011;11636;52.086;5.090;2023-02-15T07:56:41;31.15;;;21.70;;
22939;SDS011;11636;52.086;5.090;2023-02-15T07:59:15;31.52;;;21.75;;
22939;SDS011;11636;52.086;5.090;2023-02-15T08:01:41;33.83;;;22.50;;
22939;SDS011;11636;52.086;5.090;2023-02-15T08:04:08;30.73;;;20.50;;
22939;SDS011;11636;52.086;5.090;2023-02-15T08:06:44;31.50;;;21.67;;
22939;SDS011;11636;52.086;5.090;2023-02-15T08:09:11;30.52;;;20.55;;
22939;SDS011;11636;52.086;5.090;2023-02-15T08:11:38;33.45;;;22.58;;
22939;SDS011;11636;52.086;5.090;2023-02-15T08:14:19;36.67;;;24.17;;
22939;SDS011;11636;52.086;5.090;2023-02-15T08:16:49;32.88;;;21.67;;
22939;SDS011;11636;52.086;5.090;2023-02-15T08:19:29;32.42;;;20.92;;
22939;SDS011;11636;52.086;5.090;2023-02-15T08:21:59;31.20;;;21.40;;
22939;SDS011;11636;52.086;5.090;2023-02-15T08:24:37;33.85;;;22.40;;
22939;SDS011;11636;52.086;5.090;2023-02-15T08:27:12;34.30;;;23.55;;
22939;SDS011;11636;52.086;5.090;2023-02-15T08:29:38;31.52;;;20.90;;
22939;SDS011;11636;52.086;5.090;2023-02-15T08:32:08;34.63;;;23.17;;
22939;SDS011;11636;52.086;5.090;2023-02-15T08:34:44;36.38;;;24.23;;
22939;SDS011;11636;52.086;5.090;2023-02-15T08:37:11;34.95;;;23.25;;
22939;SDS011;11636;52.086;5.090;2023-02-15T08:39:38;34.05;;;23.63;;
22939;SDS011;11636;52.086;5.090;2023-02-15T08:42:11;37.03;;;23.35;;
22939;SDS011;11636;52.086;5.090;2023-02-15T08:44:38;32.15;;;21.88;;
22939;SDS011;11636;52.086;5.090;2023-02-15T08:47:14;29.77;;;20.55;;
22939;SDS011;11636;52.086;5.090;2023-02-15T08:49:40;28.45;;;19.73;;
22939;SDS011;11636;52.086;5.090;2023-02-15T08:52:18;27.65;;;19.02;;
22939;SDS011;11636;52.086;5.090;2023-02-15T08:54:45;28.77;;;20.13;;
22939;SDS011;11636;52.086;5.090;2023-02-15T08:57:18;26.17;;;17.63;;
22939;SDS011;11636;52.086;5.090;2023-02-15T08:59:45;33.10;;;23.25;;
22939;SDS011;11636;52.086;5.090;2023-02-15T09:02:12;30.25;;;20.80;;
22939;SDS011;11636;52.086;5.090;2023-02-15T09:04:45;29.92;;;21.25;;
22939;SDS011;11636;52.086;5.090;2023-02-15T09:07:18;34.85;;;23.27;;
22939;SDS011;11636;52.086;5.090;2023-02-15T09:09:45;31.58;;;22.38;;
22939;SDS011;11636;52.086;5.090;2023-02-15T09:12:12;34.05;;;22.95;;
22939;SDS011;11636;52.086;5.090;2023-02-15T09:14:45;34.58;;;24.08;;
22939;SDS011;11636;52.086;5.090;2023-02-15T09:17:20;36.85;;;25.02;;
22939;SDS011;11636;52.086;5.090;2023-02-15T09:19:53;37.70;;;25.17;;
22939;SDS011;11636;52.086;5.090;2023-02-15T09:22:21;37.80;;;27.02;;
22939;SDS011;11636;52.086;5.090;2023-02-15T09:24:48;39.65;;;26.30;;
22939;SDS011;11636;52.086;5.090;2023-02-15T09:27:22;32.55;;;22.73;;
22939;SDS011;11636;52.086;5.090;2023-02-15T09:29:48;31.52;;;21.67;;
22939;SDS011;11636;52.086;5.090;2023-02-15T09:32:22;31.92;;;22.27;;
22939;SDS011;11636;52.086;5.090;2023-02-15T09:34:49;30.52;;;20.75;;
22939;SDS011;11636;52.086;5.090;2023-02-15T09:37:22;26.15;;;17.77;;
22939;SDS011;11636;52.086;5.090;2023-02-15T09:39:48;28.95;;;19.17;;
22939;SDS011;11636;52.086;5.090;2023-02-15T09:45:30;22.33;;;16.02;;
22939;SDS011;11636;52.086;5.090;2023-02-15T09:48:23;22.95;;;16.48;;
22939;SDS011;11636;52.086;5.090;2023-02-15T09:56:49;25.98;;;18.70;;
22939;SDS011;11636;52.086;5.090;2023-02-15T09:59:29;26.55;;;18.48;;
22939;SDS011;11636;52.086;5.090;2023-02-15T10:11:14;32.97;;;23.10;;
22939;SDS011;11636;52.086;5.090;2023-02-15T10:14:20;39.22;;;25.58;;
22939;SDS011;11636;52.086;5.090;2023-02-15T10:28:09;30.52;;;20.52;;
22939;SDS011;11636;52.086;5.090;2023-02-15T10:30:53;28.83;;;19.98;;
22939;SDS011;11636;52.086;5.090;2023-02-15T10:33:40;32.50;;;22.38;;
22939;SDS011;11636;52.086;5.090;2023-02-15T10:36:20;27.23;;;19.45;;
22939;SDS011;11636;52.086;5.090;2023-02-15T10:39:10;30.08;;;21.65;;
22939;SDS011;11636;52.086;5.090;2023-02-15T10:50:06;35.72;;;25.05;;
22939;SDS011;11636;52.086;5.090;2023-02-15T10:55:57;42.08;;;27.10;;
22939;SDS011;11636;52.086;5.090;2023-02-15T11:01:32;42.67;;;28.85;;
22939;SDS011;11636;52.086;5.090;2023-02-15T11:04:34;38.60;;;25.55;;
22939;SDS011;11636;52.086;5.090;2023-02-15T11:10:05;40.67;;;26.65;;
22939;SDS011;11636;52.086;5.090;2023-02-15T11:12:46;33.55;;;23.42;;
22939;SDS011;11636;52.086;5.090;2023-02-15T11:15:32;43.65;;;28.05;;
22939;SDS011;11636;52.086;5.090;2023-02-15T11:18:08;39.90;;;25.00;;
22939;SDS011;11636;52.086;5.090;2023-02-15T11:21:04;39.20;;;26.55;;
22939;SDS011;11636;52.086;5.090;2023-02-15T11:23:41;47.75;;;32.03;;
22939;SDS011;11636;52.086;5.090;2023-02-15T11:29:00;36.17;;;25.92;;
22939;SDS011;11636;52.086;5.090;2023-02-15T11:31:45;42.63;;;28.48;;
22939;SDS011;11636;52.086;5.090;2023-02-15T11:34:18;36.33;;;23.77;;
22939;SDS011;11636;52.086;5.090;2023-02-15T11:37:04;32.72;;;23.27;;
22939;SDS011;11636;52.086;5.090;2023-02-15T11:39:34;36.03;;;25.40;;
22939;SDS011;11636;52.086;5.090;2023-02-15T11:42:12;38.30;;;27.73;;
22939;SDS011;11636;52.086;5.090;2023-02-15T11:45:25;39.22;;;26.58;;
22939;SDS011;11636;52.086;5.090;2023-02-15T11:47:53;34.75;;;24.30;;
22939;SDS011;11636;52.086;5.090;2023-02-15T11:50:27;32.58;;;23.17;;
22939;SDS011;11636;52.086;5.090;2023-02-15T11:53:05;44.30;;;29.00;;
22939;SDS011;11636;52.086;5.090;2023-02-15T11:55:39;43.72;;;29.05;;
22939;SDS011;11636;52.086;5.090;2023-02-15T12:01:20;42.10;;;28.38;;
22939;SDS011;11636;52.086;5.090;2023-02-15T12:03:58;42.42;;;27.77;;
22939;SDS011;11636;52.086;5.090;2023-02-15T12:06:45;41.88;;;28.42;;
22939;SDS011;11636;52.086;5.090;2023-02-15T12:09:34;46.95;;;29.88;;
22939;SDS011;11636;52.086;5.090;2023-02-15T12:12:49;46.45;;;32.00;;
22939;SDS011;11636;52.086;5.090;2023-02-15T12:15:06;51.13;;;31.80;;
22939;SDS011;11636;52.086;5.090;2023-02-15T12:20:28;44.42;;;30.83;;
22939;SDS011;11636;52.086;5.090;2023-02-15T12:23:05;40.85;;;29.25;;
22939;SDS011;11636;52.086;5.090;2023-02-15T12:30:57;43.50;;;30.35;;
22939;SDS011;11636;52.086;5.090;2023-02-15T12:33:35;39.45;;;28.08;;
22939;SDS011;11636;52.086;5.090;2023-02-15T12:36:12;44.60;;;30.88;;
22939;SDS011;11636;52.086;5.090;2023-02-15T12:41:38;46.83;;;31.95;;
22939;SDS011;11636;52.086;5.090;2023-02-15T12:44:22;54.00;;;36.42;;
22939;SDS011;11636;52.086;5.090;2023-02-15T12:49:27;52.40;;;33.85;;
22939;SDS011;11636;52.086;5.090;2023-02-15T12:51:56;47.83;;;33.05;;
22939;SDS011;11636;52.086;5.090;2023-02-15T12:59:59;45.78;;;31.30;;
22939;SDS011;11636;52.086;5.090;2023-02-15T13:05:18;37.55;;;25.30;;
22939;SDS011;11636;52.086;5.090;2023-02-15T13:07:58;40.28;;;27.90;;
22939;SDS011;11636;52.086;5.090;2023-02-15T13:10:43;38.75;;;27.63;;
22939;SDS011;11636;52.086;5.090;2023-02-15T13:13:22;39.58;;;27.10;;
22939;SDS011;11636;52.086;5.090;2023-02-15T13:16:11;50.42;;;33.92;;
22939;SDS011;11636;52.086;5.090;2023-02-15T13:18:47;46.47;;;32.17;;
22939;SDS011;11636;52.086;5.090;2023-02-15T13:21:19;43.90;;;31.17;;
22939;SDS011;11636;52.086;5.090;2023-02-15T13:26:31;52.17;;;33.45;;
22939;SDS011;11636;52.086;5.090;2023-02-15T13:29:10;49.70;;;33.60;;
22939;SDS011;11636;52.086;5.090;2023-02-15T13:31:43;52.67;;;35.85;;
22939;SDS011;11636;52.086;5.090;2023-02-15T13:34:22;54.13;;;35.83;;
22939;SDS011;11636;52.086;5.090;2023-02-15T13:37:20;48.42;;;33.60;;
22939;SDS011;11636;52.086;5.090;2023-02-15T13:42:47;38.05;;;27.58;;
22939;SDS011;11636;52.086;5.090;2023-02-15T14:06:05;40.03;;;27.48;;
22939;SDS011;11636;52.086;5.090;2023-02-15T14:11:25;43.72;;;29.83;;
22939;SDS011;11636;52.086;5.090;2023-02-15T14:20:11;41.83;;;28.17;;
22939;SDS011;11636;52.086;5.090;2023-02-15T14:22:58;43.60;;;29.17;;
22939;SDS011;11636;52.086;5.090;2023-02-15T14:25:59;42.38;;;29.20;;
22939;SDS011;11636;52.086;5.090;2023-02-15T14:28:43;41.03;;;26.70;;
22939;SDS011;11636;52.086;5.090;2023-02-15T14:31:40;37.92;;;25.40;;
22939;SDS011;11636;52.086;5.090;2023-02-15T14:34:27;46.58;;;31.63;;
22939;SDS011;11636;52.086;5.090;2023-02-15T14:37:09;48.78;;;32.63;;
22939;SDS011;11636;52.086;5.090;2023-02-15T14:39:56;44.08;;;31.13;;
22939;SDS011;11636;52.086;5.090;2023-02-15T14:42:58;43.90;;;30.52;;
22939;SDS011;11636;52.086;5.090;2023-02-15T14:45:35;44.55;;;31.73;;
22939;SDS011;11636;52.086;5.090;2023-02-15T14:48:30;47.15;;;33.65;;
22939;SDS011;11636;52.086;5.090;2023-02-15T14:50:59;46.35;;;32.13;;
22939;SDS011;11636;52.086;5.090;2023-02-15T15:01:15;47.50;;;33.17;;
22939;SDS011;11636;52.086;5.090;2023-02-15T15:04:06;40.97;;;29.25;;
22939;SDS011;11636;52.086;5.090;2023-02-15T15:06:37;41.40;;;28.02;;
22939;SDS011;11636;52.086;5.090;2023-02-15T15:09:18;40.00;;;28.85;;
22939;SDS011;11636;52.086;5.090;2023-02-15T15:14:48;45.38;;;32.08;;
22939;SDS011;11636;52.086;5.090;2023-02-15T15:23:36;36.97;;;26.10;;
22939;SDS011;11636;52.086;5.090;2023-02-15T15:26:23;40.65;;;26.88;;
22939;SDS011;11636;52.086;5.090;2023-02-15T15:28:55;38.00;;;27.40;;
22939;SDS011;11636;52.086;5.090;2023-02-15T15:31:40;40.80;;;28.00;;
22939;SDS011;11636;52.086;5.090;2023-02-15T15:48:43;49.95;;;33.90;;
22939;SDS011;11636;52.086;5.090;2023-02-15T15:51:21;49.80;;;33.08;;
22939;SDS011;11636;52.086;5.090;2023-02-15T15:53:54;52.03;;;35.38;;
22939;SDS011;11636;52.086;5.090;2023-02-15T15:56:31;52.38;;;35.30;;
22939;SDS011;11636;52.086;5.090;2023-02-15T15:59:07;45.55;;;32.13;;
22939;SDS011;11636;52.086;5.090;2023-02-15T16:01:43;50.17;;;33.58;;
22939;SDS011;11636;52.086;5.090;2023-02-15T16:04:36;46.28;;;32.13;;
22939;SDS011;11636;52.086;5.090;2023-02-15T16:10:06;41.97;;;29.55;;
22939;SDS011;11636;52.086;5.090;2023-02-15T16:12:45;41.70;;;27.42;;
22939;SDS011;11636;52.086;5.090;2023-02-15T16:15:25;40.38;;;27.15;;
22939;SDS011;11636;52.086;5.090;2023-02-15T16:18:03;44.75;;;29.98;;
22939;SDS011;11636;52.086;5.090;2023-02-15T16:20:37;44.45;;;29.55;;
22939;SDS011;11636;52.086;5.090;2023-02-15T16:23:12;41.75;;;28.92;;
22939;SDS011;11636;52.086;5.090;2023-02-15T16:29:23;39.13;;;28.08;;
22939;SDS011;11636;52.086;5.090;2023-02-15T16:32:06;46.33;;;29.90;;
22939;SDS011;11636;52.086;5.090;2023-02-15T16:34:57;46.33;;;30.63;;
22939;SDS011;11636;52.086;5.090;2023-02-15T16:37:33;40.97;;;28.25;;
22939;SDS011;11636;52.086;5.090;2023-02-15T16:40:14;33.15;;;24.38;;
22939;SDS011;11636;52.086;5.090;2023-02-15T16:42:54;36.70;;;24.75;;
22939;SDS011;11636;52.086;5.090;2023-02-15T16:45:32;46.92;;;30.25;;
22939;SDS011;11636;52.086;5.090;2023-02-15T16:48:05;46.65;;;29.08;;
22939;SDS011;11636;52.086;5.090;2023-02-15T16:50:46;42.28;;;27.98;;
22939;SDS011;11636;52.086;5.090;2023-02-15T16:53:23;41.47;;;27.42;;
22939;SDS011;11636;52.086;5.090;2023-02-15T16:56:01;38.60;;;26.50;;
22939;SDS011;11636;52.086;5.090;2023-02-15T16:58:38;35.75;;;24.17;;
22939;SDS011;11636;52.086;5.090;2023-02-15T17:01:17;34.22;;;23.30;;
22939;SDS011;11636;52.086;5.090;2023-02-15T17:03:50;34.92;;;23.35;;
22939;SDS011;11636;52.086;5.090;2023-02-15T17:06:42;36.17;;;23.85;;
22939;SDS011;11636;52.086;5.090;2023-02-15T17:09:54;34.97;;;23.23;;
22939;SDS011;11636;52.086;5.090;2023-02-15T17:15:35;36.85;;;24.63;;
22939;SDS011;11636;52.086;5.090;2023-02-15T17:20:48;28.70;;;19.70;;
22939;SDS011;11636;52.086;5.090;2023-02-15T17:23:31;29.02;;;20.70;;
22939;SDS011;11636;52.086;5.090;2023-02-15T17:26:12;31.10;;;21.02;;
22939;SDS011;11636;52.086;5.090;2023-02-15T17:28:58;38.42;;;25.42;;
22939;SDS011;11636;52.086;5.090;2023-02-15T17:31:31;37.28;;;25.63;;
22939;SDS011;11636;52.086;5.090;2023-02-15T17:34:05;46.63;;;30.25;;
22939;SDS011;11636;52.086;5.090;2023-02-15T17:36:57;44.25;;;29.95;;
22939;SDS011;11636;52.086;5.090;2023-02-15T17:39:34;42.45;;;28.63;;
22939;SDS011;11636;52.086;5.090;2023-02-15T17:42:01;39.10;;;26.42;;
22939;SDS011;11636;52.086;5.090;2023-02-15T17:44:34;41.88;;;27.23;;
22939;SDS011;11636;52.086;5.090;2023-02-15T17:47:08;37.67;;;25.63;;
22939;SDS011;11636;52.086;5.090;2023-02-15T17:49:47;36.05;;;23.33;;
22939;SDS011;11636;52.086;5.090;2023-02-15T17:52:24;34.88;;;24.27;;
22939;SDS011;11636;52.086;5.090;2023-02-15T17:55:04;36.83;;;24.50;;
22939;SDS011;11636;52.086;5.090;2023-02-15T17:57:57;42.35;;;27.52;;
22939;SDS011;11636;52.086;5.090;2023-02-15T18:00:31;41.45;;;27.88;;
22939;SDS011;11636;52.086;5.090;2023-02-15T18:03:28;37.20;;;26.25;;
22939;SDS011;11636;52.086;5.090;2023-02-15T18:06:21;39.80;;;26.08;;
22939;SDS011;11636;52.086;5.090;2023-02-15T18:09:14;40.23;;;27.37;;
22939;SDS011;11636;52.086;5.090;2023-02-15T18:12:19;44.15;;;28.65;;
22939;SDS011;11636;52.086;5.090;2023-02-15T18:14:53;42.22;;;28.75;;
22939;SDS011;11636;52.086;5.090;2023-02-15T18:17:43;41.38;;;28.58;;
22939;SDS011;11636;52.086;5.090;2023-02-15T18:22:46;46.05;;;29.85;;
22939;SDS011;11636;52.086;5.090;2023-02-15T18:25:20;38.10;;;26.55;;